sensor_id;sensor_type;location;lat;lon;timestamp;P1;durP1;ratioP1;P2;durP2;ratioP2
83695;SDS011;73677;54.530;18.484;2024-02-23T00:01:03;19.10;;;12.48;;
83695;SDS011;73677;54.530;18.484;2024-02-23T00:03:50;20.95;;;12.38;;
83695;SDS011;73677;54.530;18.484;2024-02-23T00:06:19;23.15;;;13.32;;
83695;SDS011;73677;54.530;18.484;2024-02-23T00:08:49;20.10;;;12.02;;
83695;SDS011;73677;54.530;18.484;2024-02-23T00:11:17;20.25;;;12.15;;
83695;SDS011;73677;54.530;18.484;2024-02-23T00:13:46;22.02;;;12.18;;
83695;SDS011;73677;54.530;18.484;2024-02-23T00:16:14;20.48;;;12.05;;
83695;SDS011;73677;54.530;18.484;2024-02-23T00:18:43;23.90;;;13.77;;
83695;SDS011;73677;54.530;18.484;2024-02-23T00:21:12;23.40;;;12.20;;
83695;SDS011;73677;54.530;18.484;2024-02-23T00:23:40;23.55;;;12.85;;
83695;SDS011;73677;54.530;18.484;2024-02-23T00:26:10;21.63;;;12.60;;
83695;SDS011;73677;54.530;18.484;2024-02-23T00:28:39;19.20;;;11.32;;
83695;SDS011;73677;54.530;18.484;2024-02-23T00:31:07;20.52;;;13.77;;
83695;SDS011;73677;54.530;18.484;2024-02-23T00:33:36;20.40;;;13.98;;
83695;SDS011;73677;54.530;18.484;2024-02-23T00:36:09;22.20;;;12.38;;
83695;SDS011;73677;54.530;18.484;2024-02-23T00:38:37;18.50;;;11.80;;
83695;SDS011;73677;54.530;18.484;2024-02-23T00:41:06;19.90;;;12.00;;
83695;SDS011;73677;54.530;18.484;2024-02-23T00:43:38;18.38;;;13.23;;
83695;SDS011;73677;54.530;18.484;2024-02-23T00:46:07;19.33;;;12.15;;
83695;SDS011;73677;54.530;18.484;2024-02-23T00:48:36;20.23;;;11.57;;
83695;SDS011;73677;54.530;18.484;2024-02-23T00:51:04;23.05;;;13.38;;
83695;SDS011;73677;54.530;18.484;2024-02-23T00:53:34;19.92;;;12.95;;
83695;SDS011;73677;54.530;18.484;2024-02-23T00:56:02;20.67;;;12.80;;
83695;SDS011;73677;54.530;18.484;2024-02-23T00:58:31;22.25;;;13.07;;
83695;SDS011;73677;54.530;18.484;2024-02-23T01:01:01;18.35;;;9.98;;
83695;SDS011;73677;54.530;18.484;2024-02-23T01:03:30;19.27;;;10.90;;
83695;SDS011;73677;54.530;18.484;2024-02-23T01:05:58;20.10;;;10.48;;
83695;SDS011;73677;54.530;18.484;2024-02-23T01:08:27;17.77;;;11.20;;
83695;SDS011;73677;54.530;18.484;2024-02-23T01:10:56;17.25;;;10.50;;
83695;SDS011;73677;54.530;18.484;2024-02-23T01:13:24;20.67;;;11.68;;
83695;SDS011;73677;54.530;18.484;2024-02-23T01:15:53;17.63;;;11.23;;
83695;SDS011;73677;54.530;18.484;2024-02-23T01:18:23;19.48;;;10.57;;
83695;SDS011;73677;54.530;18.484;2024-02-23T01:20:51;20.38;;;11.02;;
83695;SDS011;73677;54.530;18.484;2024-02-23T01:23:20;18.38;;;10.93;;
83695;SDS011;73677;54.530;18.484;2024-02-23T01:25:49;20.02;;;12.77;;
83695;SDS011;73677;54.530;18.484;2024-02-23T01:28:17;19.40;;;12.70;;
83695;SDS011;73677;54.530;18.484;2024-02-23T01:30:45;20.65;;;12.55;;
83695;SDS011;73677;54.530;18.484;2024-02-23T01:33:14;17.67;;;11.88;;
83695;SDS011;73677;54.530;18.484;2024-02-23T01:35:44;19.45;;;10.75;;
83695;SDS011;73677;54.530;18.484;2024-02-23T01:38:12;17.35;;;11.35;;
83695;SDS011;73677;54.530;18.484;2024-02-23T01:40:45;17.63;;;11.38;;
83695;SDS011;73677;54.530;18.484;2024-02-23T01:43:14;17.50;;;10.50;;
83695;SDS011;73677;54.530;18.484;2024-02-23T01:45:42;18.08;;;11.23;;
83695;SDS011;73677;54.530;18.484;2024-02-23T01:48:11;18.58;;;10.18;;
83695;SDS011;73677;54.530;18.484;2024-02-23T01:50:39;15.57;;;9.95;;
83695;SDS011;73677;54.530;18.484;2024-02-23T01:53:10;18.35;;;11.48;;
83695;SDS011;73677;54.530;18.484;2024-02-23T01:55:40;21.02;;;14.07;;
83695;SDS011;73677;54.530;18.484;2024-02-23T01:58:09;18.00;;;11.45;;
83695;SDS011;73677;54.530;18.484;2024-02-23T02:00:38;14.15;;;9.48;;
83695;SDS011;73677;54.530;18.484;2024-02-23T02:03:06;16.85;;;10.93;;
83695;SDS011;73677;54.530;18.484;2024-02-23T02:05:39;18.63;;;10.35;;
83695;SDS011;73677;54.530;18.484;2024-02-23T02:08:07;18.35;;;11.68;;
83695;SDS011;73677;54.530;18.484;2024-02-23T02:10:38;19.20;;;10.73;;
83695;SDS011;73677;54.530;18.484;2024-02-23T02:13:07;20.40;;;12.80;;
83695;SDS011;73677;54.530;18.484;2024-02-23T02:15:35;18.30;;;10.48;;
83695;SDS011;73677;54.530;18.484;2024-02-23T02:18:04;18.13;;;11.82;;
83695;SDS011;73677;54.530;18.484;2024-02-23T02:20:33;20.50;;;11.65;;
83695;SDS011;73677;54.530;18.484;2024-02-23T02:23:04;17.73;;;10.57;;
83695;SDS011;73677;54.530;18.484;2024-02-23T02:25:35;17.58;;;11.38;;
83695;SDS011;73677;54.530;18.484;2024-02-23T02:28:06;17.13;;;10.73;;
83695;SDS011;73677;54.530;18.484;2024-02-23T02:30:35;18.80;;;12.52;;
83695;SDS011;73677;54.530;18.484;2024-02-23T02:33:03;20.52;;;11.88;;
83695;SDS011;73677;54.530;18.484;2024-02-23T02:35:32;19.90;;;12.30;;
83695;SDS011;73677;54.530;18.484;2024-02-23T02:38:01;20.50;;;11.85;;
83695;SDS011;73677;54.530;18.484;2024-02-23T02:40:29;21.33;;;13.40;;
83695;SDS011;73677;54.530;18.484;2024-02-23T02:45:28;23.02;;;13.57;;
83695;SDS011;73677;54.530;18.484;2024-02-23T02:47:57;19.58;;;12.75;;
83695;SDS011;73677;54.530;18.484;2024-02-23T02:50:27;21.15;;;12.10;;
83695;SDS011;73677;54.530;18.484;2024-02-23T02:52:56;21.48;;;12.95;;
83695;SDS011;73677;54.530;18.484;2024-02-23T02:55:24;22.48;;;13.68;;
83695;SDS011;73677;54.530;18.484;2024-02-23T02:57:53;19.73;;;11.85;;
83695;SDS011;73677;54.530;18.484;2024-02-23T03:00:23;22.23;;;11.95;;
83695;SDS011;73677;54.530;18.484;2024-02-23T03:02:52;19.33;;;11.48;;
83695;SDS011;73677;54.530;18.484;2024-02-23T03:05:21;18.45;;;11.45;;
83695;SDS011;73677;54.530;18.484;2024-02-23T03:07:50;18.90;;;11.52;;
83695;SDS011;73677;54.530;18.484;2024-02-23T03:10:18;19.95;;;10.95;;
83695;SDS011;73677;54.530;18.484;2024-02-23T03:12:47;21.30;;;13.40;;
83695;SDS011;73677;54.530;18.484;2024-02-23T03:15:15;19.80;;;15.63;;
83695;SDS011;73677;54.530;18.484;2024-02-23T03:17:46;19.73;;;11.25;;
83695;SDS011;73677;54.530;18.484;2024-02-23T03:20:15;21.27;;;13.27;;
83695;SDS011;73677;54.530;18.484;2024-02-23T03:22:44;17.98;;;12.10;;
83695;SDS011;73677;54.530;18.484;2024-02-23T03:25:12;19.70;;;15.30;;
83695;SDS011;73677;54.530;18.484;2024-02-23T03:27:41;17.95;;;11.80;;
83695;SDS011;73677;54.530;18.484;2024-02-23T03:30:09;18.90;;;12.43;;
83695;SDS011;73677;54.530;18.484;2024-02-23T03:35:08;19.35;;;11.15;;
83695;SDS011;73677;54.530;18.484;2024-02-23T03:37:37;18.88;;;12.02;;
83695;SDS011;73677;54.530;18.484;2024-02-23T03:40:06;20.17;;;13.05;;
83695;SDS011;73677;54.530;18.484;2024-02-23T03:42:37;17.27;;;12.63;;
83695;SDS011;73677;54.530;18.484;2024-02-23T03:45:04;18.17;;;11.52;;
83695;SDS011;73677;54.530;18.484;2024-02-23T03:47:33;19.58;;;12.70;;
83695;SDS011;73677;54.530;18.484;2024-02-23T03:50:02;17.73;;;10.38;;
83695;SDS011;73677;54.530;18.484;2024-02-23T03:52:33;23.20;;;14.00;;
83695;SDS011;73677;54.530;18.484;2024-02-23T03:55:01;21.23;;;15.40;;
83695;SDS011;73677;54.530;18.484;2024-02-23T03:57:31;23.73;;;12.93;;
83695;SDS011;73677;54.530;18.484;2024-02-23T04:00:00;21.63;;;13.57;;
83695;SDS011;73677;54.530;18.484;2024-02-23T04:02:29;19.15;;;12.00;;
83695;SDS011;73677;54.530;18.484;2024-02-23T04:04:58;25.10;;;16.23;;
83695;SDS011;73677;54.530;18.484;2024-02-23T04:07:26;28.77;;;16.50;;
83695;SDS011;73677;54.530;18.484;2024-02-23T04:09:56;23.50;;;13.68;;
83695;SDS011;73677;54.530;18.484;2024-02-23T04:12:25;29.20;;;15.02;;
83695;SDS011;73677;54.530;18.484;2024-02-23T04:14:53;26.80;;;14.20;;
83695;SDS011;73677;54.530;18.484;2024-02-23T04:17:22;21.45;;;13.73;;
83695;SDS011;73677;54.530;18.484;2024-02-23T04:19:50;22.77;;;15.02;;
83695;SDS011;73677;54.530;18.484;2024-02-23T04:22:19;20.75;;;11.85;;
83695;SDS011;73677;54.530;18.484;2024-02-23T04:24:47;22.17;;;13.77;;
83695;SDS011;73677;54.530;18.484;2024-02-23T04:27:17;23.98;;;12.80;;
83695;SDS011;73677;54.530;18.484;2024-02-23T04:29:46;21.45;;;12.55;;
83695;SDS011;73677;54.530;18.484;2024-02-23T04:32:14;19.02;;;11.35;;
83695;SDS011;73677;54.530;18.484;2024-02-23T04:34:42;22.27;;;13.48;;
83695;SDS011;73677;54.530;18.484;2024-02-23T04:37:11;21.10;;;12.52;;
83695;SDS011;73677;54.530;18.484;2024-02-23T04:39:39;22.23;;;13.50;;
83695;SDS011;73677;54.530;18.484;2024-02-23T04:44:40;21.25;;;12.23;;
83695;SDS011;73677;54.530;18.484;2024-02-23T04:47:09;19.95;;;12.25;;
83695;SDS011;73677;54.530;18.484;2024-02-23T04:49:38;20.23;;;12.48;;
83695;SDS011;73677;54.530;18.484;2024-02-23T04:52:07;19.00;;;11.15;;
83695;SDS011;73677;54.530;18.484;2024-02-23T04:54:35;18.13;;;11.77;;
83695;SDS011;73677;54.530;18.484;2024-02-23T04:57:04;15.77;;;10.45;;
83695;SDS011;73677;54.530;18.484;2024-02-23T04:59:32;15.93;;;10.15;;
83695;SDS011;73677;54.530;18.484;2024-02-23T05:02:02;16.17;;;12.00;;
83695;SDS011;73677;54.530;18.484;2024-02-23T05:04:31;17.05;;;11.05;;
83695;SDS011;73677;54.530;18.484;2024-02-23T05:09:29;16.08;;;11.45;;
83695;SDS011;73677;54.530;18.484;2024-02-23T05:11:58;17.10;;;12.07;;
83695;SDS011;73677;54.530;18.484;2024-02-23T05:14:27;18.10;;;11.43;;
83695;SDS011;73677;54.530;18.484;2024-02-23T05:16:56;16.35;;;10.45;;
83695;SDS011;73677;54.530;18.484;2024-02-23T05:19:26;16.85;;;9.75;;
83695;SDS011;73677;54.530;18.484;2024-02-23T05:21:54;16.83;;;9.55;;
83695;SDS011;73677;54.530;18.484;2024-02-23T05:24:23;18.77;;;10.93;;
83695;SDS011;73677;54.530;18.484;2024-02-23T05:26:51;16.55;;;9.68;;
83695;SDS011;73677;54.530;18.484;2024-02-23T05:29:21;13.98;;;8.70;;
83695;SDS011;73677;54.530;18.484;2024-02-23T05:31:50;14.75;;;9.05;;
83695;SDS011;73677;54.530;18.484;2024-02-23T05:34:20;16.77;;;8.90;;
83695;SDS011;73677;54.530;18.484;2024-02-23T05:36:50;12.90;;;8.68;;
83695;SDS011;73677;54.530;18.484;2024-02-23T05:39:18;11.70;;;9.32;;
83695;SDS011;73677;54.530;18.484;2024-02-23T05:41:47;14.02;;;9.07;;
83695;SDS011;73677;54.530;18.484;2024-02-23T05:44:15;15.25;;;9.32;;
83695;SDS011;73677;54.530;18.484;2024-02-23T05:46:44;13.63;;;8.45;;
83695;SDS011;73677;54.530;18.484;2024-02-23T05:49:12;10.70;;;7.47;;
83695;SDS011;73677;54.530;18.484;2024-02-23T05:51:41;15.55;;;8.80;;
83695;SDS011;73677;54.530;18.484;2024-02-23T05:54:11;13.65;;;8.38;;
83695;SDS011;73677;54.530;18.484;2024-02-23T05:56:40;11.88;;;8.25;;
83695;SDS011;73677;54.530;18.484;2024-02-23T05:59:08;12.77;;;8.60;;
83695;SDS011;73677;54.530;18.484;2024-02-23T06:01:37;12.05;;;8.05;;
83695;SDS011;73677;54.530;18.484;2024-02-23T06:04:05;11.73;;;7.45;;
83695;SDS011;73677;54.530;18.484;2024-02-23T06:06:34;11.80;;;7.90;;
83695;SDS011;73677;54.530;18.484;2024-02-23T06:09:03;10.85;;;6.82;;
83695;SDS011;73677;54.530;18.484;2024-02-23T06:11:34;11.30;;;7.70;;
83695;SDS011;73677;54.530;18.484;2024-02-23T06:14:02;10.82;;;7.95;;
83695;SDS011;73677;54.530;18.484;2024-02-23T06:16:31;12.00;;;7.40;;
83695;SDS011;73677;54.530;18.484;2024-02-23T06:18:59;10.48;;;7.15;;
83695;SDS011;73677;54.530;18.484;2024-02-23T06:21:30;14.30;;;9.05;;
83695;SDS011;73677;54.530;18.484;2024-02-23T06:23:59;16.92;;;9.73;;
83695;SDS011;73677;54.530;18.484;2024-02-23T06:26:28;17.70;;;9.90;;
83695;SDS011;73677;54.530;18.484;2024-02-23T06:28:58;13.38;;;8.40;;
83695;SDS011;73677;54.530;18.484;2024-02-23T06:31:27;12.98;;;8.32;;
83695;SDS011;73677;54.530;18.484;2024-02-23T06:33:55;12.48;;;8.07;;
83695;SDS011;73677;54.530;18.484;2024-02-23T06:36:24;10.32;;;7.00;;
83695;SDS011;73677;54.530;18.484;2024-02-23T06:38:53;12.77;;;7.85;;
83695;SDS011;73677;54.530;18.484;2024-02-23T06:41:21;14.18;;;7.75;;
83695;SDS011;73677;54.530;18.484;2024-02-23T06:43:50;13.02;;;7.78;;
83695;SDS011;73677;54.530;18.484;2024-02-23T06:46:21;10.80;;;6.63;;
83695;SDS011;73677;54.530;18.484;2024-02-23T06:48:50;14.57;;;8.25;;
83695;SDS011;73677;54.530;18.484;2024-02-23T06:51:19;13.63;;;7.03;;
83695;SDS011;73677;54.530;18.484;2024-02-23T06:53:47;13.07;;;7.47;;
83695;SDS011;73677;54.530;18.484;2024-02-23T06:56:16;13.30;;;7.15;;
83695;SDS011;73677;54.530;18.484;2024-02-23T06:58:44;13.25;;;7.43;;
83695;SDS011;73677;54.530;18.484;2024-02-23T07:01:12;12.15;;;6.88;;
83695;SDS011;73677;54.530;18.484;2024-02-23T07:03:43;9.25;;;5.90;;
83695;SDS011;73677;54.530;18.484;2024-02-23T07:06:12;9.48;;;5.60;;
83695;SDS011;73677;54.530;18.484;2024-02-23T07:08:42;9.57;;;5.50;;
83695;SDS011;73677;54.530;18.484;2024-02-23T07:11:11;8.07;;;4.95;;
83695;SDS011;73677;54.530;18.484;2024-02-23T07:13:42;8.10;;;5.03;;
83695;SDS011;73677;54.530;18.484;2024-02-23T07:16:11;7.53;;;4.93;;
83695;SDS011;73677;54.530;18.484;2024-02-23T07:18:40;7.05;;;4.60;;
83695;SDS011;73677;54.530;18.484;2024-02-23T07:21:10;6.60;;;4.05;;
83695;SDS011;73677;54.530;18.484;2024-02-23T07:23:38;7.40;;;4.50;;
83695;SDS011;73677;54.530;18.484;2024-02-23T07:26:07;6.93;;;4.13;;
83695;SDS011;73677;54.530;18.484;2024-02-23T07:28:36;7.85;;;4.00;;
83695;SDS011;73677;54.530;18.484;2024-02-23T07:31:04;6.53;;;4.07;;
83695;SDS011;73677;54.530;18.484;2024-02-23T07:33:33;11.50;;;5.65;;
83695;SDS011;73677;54.530;18.484;2024-02-23T07:36:01;7.18;;;4.03;;
83695;SDS011;73677;54.530;18.484;2024-02-23T07:38:31;6.82;;;4.00;;
83695;SDS011;73677;54.530;18.484;2024-02-23T07:41:00;7.55;;;3.88;;
83695;SDS011;73677;54.530;18.484;2024-02-23T07:43:28;6.30;;;4.22;;
83695;SDS011;73677;54.530;18.484;2024-02-23T07:45:57;6.40;;;3.42;;
83695;SDS011;73677;54.530;18.484;2024-02-23T07:48:25;5.90;;;3.83;;
83695;SDS011;73677;54.530;18.484;2024-02-23T07:50:54;7.78;;;3.80;;
83695;SDS011;73677;54.530;18.484;2024-02-23T07:53:22;7.65;;;3.85;;
83695;SDS011;73677;54.530;18.484;2024-02-23T07:55:53;5.20;;;3.72;;
83695;SDS011;73677;54.530;18.484;2024-02-23T07:58:21;6.85;;;3.08;;
83695;SDS011;73677;54.530;18.484;2024-02-23T08:00:50;4.35;;;2.80;;
83695;SDS011;73677;54.530;18.484;2024-02-23T08:03:18;4.65;;;2.75;;
83695;SDS011;73677;54.530;18.484;2024-02-23T08:05:47;5.57;;;3.45;;
83695;SDS011;73677;54.530;18.484;2024-02-23T08:08:15;6.07;;;3.17;;
83695;SDS011;73677;54.530;18.484;2024-02-23T08:10:44;4.65;;;2.83;;
83695;SDS011;73677;54.530;18.484;2024-02-23T08:13:14;4.82;;;3.03;;
83695;SDS011;73677;54.530;18.484;2024-02-23T08:15:45;4.75;;;2.72;;
83695;SDS011;73677;54.530;18.484;2024-02-23T08:18:13;6.07;;;3.35;;
83695;SDS011;73677;54.530;18.484;2024-02-23T08:20:42;5.35;;;2.72;;
83695;SDS011;73677;54.530;18.484;2024-02-23T08:23:11;5.55;;;3.42;;
83695;SDS011;73677;54.530;18.484;2024-02-23T08:25:40;5.10;;;3.00;;
83695;SDS011;73677;54.530;18.484;2024-02-23T08:28:08;6.43;;;3.10;;
83695;SDS011;73677;54.530;18.484;2024-02-23T08:30:38;6.10;;;3.05;;
83695;SDS011;73677;54.530;18.484;2024-02-23T08:33:07;5.03;;;2.40;;
83695;SDS011;73677;54.530;18.484;2024-02-23T08:35:37;6.63;;;2.65;;
83695;SDS011;73677;54.530;18.484;2024-02-23T08:38:05;7.35;;;2.67;;
83695;SDS011;73677;54.530;18.484;2024-02-23T08:40:34;3.97;;;2.40;;
83695;SDS011;73677;54.530;18.484;2024-02-23T08:43:03;5.25;;;2.60;;
83695;SDS011;73677;54.530;18.484;2024-02-23T08:45:31;5.18;;;2.42;;
83695;SDS011;73677;54.530;18.484;2024-02-23T08:48:01;7.68;;;3.58;;
83695;SDS011;73677;54.530;18.484;2024-02-23T08:50:31;4.82;;;2.22;;
83695;SDS011;73677;54.530;18.484;2024-02-23T08:52:59;4.80;;;2.60;;
83695;SDS011;73677;54.530;18.484;2024-02-23T08:55:28;9.05;;;4.57;;
83695;SDS011;73677;54.530;18.484;2024-02-23T08:57:57;6.50;;;2.80;;
83695;SDS011;73677;54.530;18.484;2024-02-23T09:00:26;14.07;;;4.38;;
83695;SDS011;73677;54.530;18.484;2024-02-23T09:02:54;9.73;;;4.13;;
83695;SDS011;73677;54.530;18.484;2024-02-23T09:05:24;6.95;;;3.40;;
83695;SDS011;73677;54.530;18.484;2024-02-23T09:07:53;6.43;;;2.58;;
83695;SDS011;73677;54.530;18.484;2024-02-23T09:10:21;9.15;;;4.28;;
83695;SDS011;73677;54.530;18.484;2024-02-23T09:12:50;5.65;;;3.25;;
83695;SDS011;73677;54.530;18.484;2024-02-23T09:15:20;4.53;;;2.25;;
83695;SDS011;73677;54.530;18.484;2024-02-23T09:17:48;4.35;;;2.58;;
83695;SDS011;73677;54.530;18.484;2024-02-23T09:20:18;4.88;;;2.20;;
83695;SDS011;73677;54.530;18.484;2024-02-23T09:22:48;6.03;;;2.00;;
83695;SDS011;73677;54.530;18.484;2024-02-23T09:25:18;2.97;;;2.00;;
83695;SDS011;73677;54.530;18.484;2024-02-23T09:27:46;3.22;;;1.73;;
83695;SDS011;73677;54.530;18.484;2024-02-23T09:30:15;5.97;;;2.10;;
83695;SDS011;73677;54.530;18.484;2024-02-23T09:32:43;3.85;;;1.90;;
83695;SDS011;73677;54.530;18.484;2024-02-23T09:37:41;8.80;;;2.50;;
83695;SDS011;73677;54.530;18.484;2024-02-23T09:40:12;4.05;;;1.80;;
83695;SDS011;73677;54.530;18.484;2024-02-23T09:42:41;4.25;;;1.90;;
83695;SDS011;73677;54.530;18.484;2024-02-23T09:45:10;4.78;;;1.80;;
83695;SDS011;73677;54.530;18.484;2024-02-23T09:47:40;6.13;;;2.53;;
83695;SDS011;73677;54.530;18.484;2024-02-23T09:50:10;3.88;;;1.75;;
83695;SDS011;73677;54.530;18.484;2024-02-23T09:52:41;3.47;;;1.70;;
83695;SDS011;73677;54.530;18.484;2024-02-23T09:55:11;4.50;;;1.88;;
83695;SDS011;73677;54.530;18.484;2024-02-23T09:57:40;3.20;;;1.58;;
83695;SDS011;73677;54.530;18.484;2024-02-23T10:00:10;7.75;;;3.20;;
83695;SDS011;73677;54.530;18.484;2024-02-23T10:02:39;12.50;;;4.00;;
83695;SDS011;73677;54.530;18.484;2024-02-23T10:05:08;5.13;;;2.58;;
83695;SDS011;73677;54.530;18.484;2024-02-23T10:07:39;2.72;;;1.33;;
83695;SDS011;73677;54.530;18.484;2024-02-23T10:10:08;3.22;;;2.25;;
83695;SDS011;73677;54.530;18.484;2024-02-23T10:15:07;2.25;;;1.48;;
83695;SDS011;73677;54.530;18.484;2024-02-23T10:17:37;12.75;;;5.93;;
83695;SDS011;73677;54.530;18.484;2024-02-23T10:20:07;4.00;;;1.48;;
83695;SDS011;73677;54.530;18.484;2024-02-23T10:22:37;4.13;;;1.90;;
83695;SDS011;73677;54.530;18.484;2024-02-23T10:25:06;3.85;;;1.77;;
83695;SDS011;73677;54.530;18.484;2024-02-23T10:27:35;2.65;;;1.50;;
83695;SDS011;73677;54.530;18.484;2024-02-23T10:30:06;2.65;;;1.55;;
83695;SDS011;73677;54.530;18.484;2024-02-23T10:32:38;1.95;;;1.20;;
83695;SDS011;73677;54.530;18.484;2024-02-23T10:35:09;3.08;;;1.98;;
83695;SDS011;73677;54.530;18.484;2024-02-23T10:37:38;3.90;;;2.25;;
83695;SDS011;73677;54.530;18.484;2024-02-23T10:40:11;1.98;;;1.40;;
83695;SDS011;73677;54.530;18.484;2024-02-23T10:42:40;3.22;;;1.33;;
83695;SDS011;73677;54.530;18.484;2024-02-23T10:45:19;2.10;;;1.05;;
83695;SDS011;73677;54.530;18.484;2024-02-23T10:47:48;2.40;;;1.77;;
83695;SDS011;73677;54.530;18.484;2024-02-23T10:50:19;4.80;;;1.80;;
83695;SDS011;73677;54.530;18.484;2024-02-23T10:52:49;3.85;;;1.55;;
83695;SDS011;73677;54.530;18.484;2024-02-23T10:55:19;2.67;;;1.50;;
83695;SDS011;73677;54.530;18.484;2024-02-23T10:57:50;3.30;;;1.80;;
83695;SDS011;73677;54.530;18.484;2024-02-23T11:00:22;2.88;;;1.63;;
83695;SDS011;73677;54.530;18.484;2024-02-23T11:02:52;1.70;;;0.80;;
83695;SDS011;73677;54.530;18.484;2024-02-23T11:05:23;2.40;;;1.40;;
83695;SDS011;73677;54.530;18.484;2024-02-23T11:07:55;2.47;;;1.08;;
83695;SDS011;73677;54.530;18.484;2024-02-23T11:10:24;1.63;;;1.10;;
83695;SDS011;73677;54.530;18.484;2024-02-23T11:12:58;1.60;;;1.13;;
83695;SDS011;73677;54.530;18.484;2024-02-23T11:15:29;3.17;;;1.63;;
83695;SDS011;73677;54.530;18.484;2024-02-23T11:18:00;3.08;;;1.58;;
83695;SDS011;73677;54.530;18.484;2024-02-23T11:20:34;5.75;;;2.13;;
83695;SDS011;73677;54.530;18.484;2024-02-23T11:23:12;7.50;;;3.65;;
83695;SDS011;73677;54.530;18.484;2024-02-23T11:25:42;4.00;;;1.90;;
83695;SDS011;73677;54.530;18.484;2024-02-23T11:28:21;2.28;;;1.38;;
83695;SDS011;73677;54.530;18.484;2024-02-23T11:30:51;7.40;;;2.25;;
83695;SDS011;73677;54.530;18.484;2024-02-23T11:33:26;1.48;;;1.00;;
83695;SDS011;73677;54.530;18.484;2024-02-23T11:36:04;1.67;;;1.33;;
83695;SDS011;73677;54.530;18.484;2024-02-23T11:38:33;2.50;;;1.52;;
83695;SDS011;73677;54.530;18.484;2024-02-23T11:41:02;8.73;;;2.60;;
83695;SDS011;73677;54.530;18.484;2024-02-23T11:43:30;5.05;;;2.45;;
83695;SDS011;73677;54.530;18.484;2024-02-23T11:46:04;3.63;;;1.55;;
83695;SDS011;73677;54.530;18.484;2024-02-23T11:48:32;3.45;;;1.65;;
83695;SDS011;73677;54.530;18.484;2024-02-23T11:51:01;2.97;;;1.77;;
83695;SDS011;73677;54.530;18.484;2024-02-23T11:53:29;2.67;;;1.45;;
83695;SDS011;73677;54.530;18.484;2024-02-23T11:55:58;5.18;;;1.42;;
83695;SDS011;73677;54.530;18.484;2024-02-23T11:58:27;2.40;;;1.50;;
83695;SDS011;73677;54.530;18.484;2024-02-23T12:00:56;2.58;;;1.75;;
83695;SDS011;73677;54.530;18.484;2024-02-23T12:05:55;4.15;;;1.60;;
83695;SDS011;73677;54.530;18.484;2024-02-23T12:08:25;4.03;;;1.70;;
83695;SDS011;73677;54.530;18.484;2024-02-23T12:13:23;4.38;;;2.25;;
83695;SDS011;73677;54.530;18.484;2024-02-23T12:15:52;2.03;;;1.33;;
83695;SDS011;73677;54.530;18.484;2024-02-23T12:20:52;5.15;;;1.80;;
83695;SDS011;73677;54.530;18.484;2024-02-23T12:23:21;3.67;;;2.20;;
83695;SDS011;73677;54.530;18.484;2024-02-23T12:25:53;3.33;;;1.23;;
83695;SDS011;73677;54.530;18.484;2024-02-23T12:28:22;5.00;;;1.88;;
83695;SDS011;73677;54.530;18.484;2024-02-23T12:30:58;3.42;;;1.67;;
83695;SDS011;73677;54.530;18.484;2024-02-23T12:33:28;2.70;;;1.70;;
83695;SDS011;73677;54.530;18.484;2024-02-23T12:35:59;2.88;;;1.95;;
83695;SDS011;73677;54.530;18.484;2024-02-23T12:38:28;4.63;;;1.85;;
83695;SDS011;73677;54.530;18.484;2024-02-23T12:40:57;4.80;;;2.38;;
83695;SDS011;73677;54.530;18.484;2024-02-23T12:43:26;4.18;;;1.40;;
83695;SDS011;73677;54.530;18.484;2024-02-23T12:45:55;5.07;;;2.00;;
83695;SDS011;73677;54.530;18.484;2024-02-23T12:48:25;4.13;;;1.80;;
83695;SDS011;73677;54.530;18.484;2024-02-23T12:50:54;3.58;;;1.75;;
83695;SDS011;73677;54.530;18.484;2024-02-23T12:53:33;3.65;;;2.10;;
83695;SDS011;73677;54.530;18.484;2024-02-23T12:56:05;5.97;;;2.60;;
83695;SDS011;73677;54.530;18.484;2024-02-23T12:58:35;3.40;;;1.90;;
83695;SDS011;73677;54.530;18.484;2024-02-23T13:01:05;3.08;;;1.60;;
83695;SDS011;73677;54.530;18.484;2024-02-23T13:03:35;3.17;;;1.60;;
83695;SDS011;73677;54.530;18.484;2024-02-23T13:06:05;3.42;;;1.63;;
83695;SDS011;73677;54.530;18.484;2024-02-23T13:08:35;4.32;;;2.60;;
83695;SDS011;73677;54.530;18.484;2024-02-23T13:11:06;3.83;;;2.55;;
83695;SDS011;73677;54.530;18.484;2024-02-23T13:13:34;5.32;;;1.80;;
83695;SDS011;73677;54.530;18.484;2024-02-23T13:16:05;3.83;;;2.00;;
83695;SDS011;73677;54.530;18.484;2024-02-23T13:18:35;3.25;;;1.80;;
83695;SDS011;73677;54.530;18.484;2024-02-23T13:21:04;9.40;;;4.20;;
83695;SDS011;73677;54.530;18.484;2024-02-23T13:23:33;4.80;;;2.17;;
83695;SDS011;73677;54.530;18.484;2024-02-23T13:26:02;2.60;;;1.70;;
83695;SDS011;73677;54.530;18.484;2024-02-23T13:28:33;5.75;;;2.95;;
83695;SDS011;73677;54.530;18.484;2024-02-23T13:31:01;8.32;;;4.00;;
83695;SDS011;73677;54.530;18.484;2024-02-23T13:35:59;6.57;;;3.08;;
83695;SDS011;73677;54.530;18.484;2024-02-23T13:38:28;4.72;;;2.10;;
83695;SDS011;73677;54.530;18.484;2024-02-23T13:40:57;4.10;;;2.00;;
83695;SDS011;73677;54.530;18.484;2024-02-23T13:43:27;6.88;;;3.50;;
83695;SDS011;73677;54.530;18.484;2024-02-23T13:45:55;8.57;;;2.60;;
83695;SDS011;73677;54.530;18.484;2024-02-23T13:48:24;4.60;;;2.20;;
83695;SDS011;73677;54.530;18.484;2024-02-23T13:50:52;5.85;;;2.35;;
83695;SDS011;73677;54.530;18.484;2024-02-23T13:53:22;4.05;;;2.08;;
83695;SDS011;73677;54.530;18.484;2024-02-23T13:55:50;5.50;;;1.95;;
83695;SDS011;73677;54.530;18.484;2024-02-23T13:58:19;6.93;;;3.45;;
83695;SDS011;73677;54.530;18.484;2024-02-23T14:00:49;5.82;;;2.45;;
83695;SDS011;73677;54.530;18.484;2024-02-23T14:03:17;3.42;;;2.00;;
83695;SDS011;73677;54.530;18.484;2024-02-23T14:05:46;4.70;;;2.67;;
83695;SDS011;73677;54.530;18.484;2024-02-23T14:08:15;4.05;;;2.00;;
83695;SDS011;73677;54.530;18.484;2024-02-23T14:10:44;4.78;;;2.22;;
83695;SDS011;73677;54.530;18.484;2024-02-23T14:13:13;2.83;;;1.75;;
83695;SDS011;73677;54.530;18.484;2024-02-23T14:15:41;3.65;;;1.95;;
83695;SDS011;73677;54.530;18.484;2024-02-23T14:18:12;4.22;;;2.08;;
83695;SDS011;73677;54.530;18.484;2024-02-23T14:20:40;3.42;;;2.08;;
83695;SDS011;73677;54.530;18.484;2024-02-23T14:23:09;3.08;;;1.90;;
83695;SDS011;73677;54.530;18.484;2024-02-23T14:25:37;8.90;;;3.03;;
83695;SDS011;73677;54.530;18.484;2024-02-23T14:28:06;7.25;;;2.35;;
83695;SDS011;73677;54.530;18.484;2024-02-23T14:30:36;4.80;;;2.35;;
83695;SDS011;73677;54.530;18.484;2024-02-23T14:33:07;5.05;;;2.30;;
83695;SDS011;73677;54.530;18.484;2024-02-23T14:35:37;4.53;;;3.33;;
83695;SDS011;73677;54.530;18.484;2024-02-23T14:38:06;6.45;;;2.40;;
83695;SDS011;73677;54.530;18.484;2024-02-23T14:40:35;10.15;;;2.88;;
83695;SDS011;73677;54.530;18.484;2024-02-23T14:43:04;3.28;;;2.22;;
83695;SDS011;73677;54.530;18.484;2024-02-23T14:45:33;4.60;;;2.15;;
83695;SDS011;73677;54.530;18.484;2024-02-23T14:48:02;4.43;;;2.08;;
83695;SDS011;73677;54.530;18.484;2024-02-23T14:50:31;5.40;;;2.72;;
83695;SDS011;73677;54.530;18.484;2024-02-23T14:53:01;3.50;;;2.00;;
83695;SDS011;73677;54.530;18.484;2024-02-23T14:55:30;7.72;;;2.38;;
83695;SDS011;73677;54.530;18.484;2024-02-23T14:57:58;4.50;;;2.13;;
83695;SDS011;73677;54.530;18.484;2024-02-23T15:00:27;4.05;;;2.25;;